sensor_id;sensor_type;location;lat;lon;timestamp;temperature;humidity
17178;DHT22;8704;52.006;4.374;2022-09-20T00:01:04;12.00;99.90
17178;DHT22;8704;52.006;4.374;2022-09-20T00:03:34;11.90;99.90
17178;DHT22;8704;52.006;4.374;2022-09-20T00:06:03;11.80;99.90
17178;DHT22;8704;52.006;4.374;2022-09-20T00:08:31;11.90;99.90
17178;DHT22;8704;52.006;4.374;2022-09-20T00:11:01;11.80;99.90
17178;DHT22;8704;52.006;4.374;2022-09-20T00:13:29;11.80;99.90
17178;DHT22;8704;52.006;4.374;2022-09-20T00:15:58;11.80;99.90
17178;DHT22;8704;52.006;4.374;2022-09-20T00:18:26;11.70;99.90
17178;DHT22;8704;52.006;4.374;2022-09-20T00:20:54;11.70;99.90
17178;DHT22;8704;52.006;4.374;2022-09-20T00:23:22;11.70;99.90
17178;DHT22;8704;52.006;4.374;2022-09-20T00:25:54;11.70;99.90
17178;DHT22;8704;52.006;4.374;2022-09-20T00:28:24;11.70;99.90
17178;DHT22;8704;52.006;4.374;2022-09-20T00:30:53;11.70;99.90
17178;DHT22;8704;52.006;4.374;2022-09-20T00:33:23;11.70;99.90
17178;DHT22;8704;52.006;4.374;2022-09-20T00:36:11;11.70;99.90
17178;DHT22;8704;52.006;4.374;2022-09-20T00:38:38;11.70;99.90
17178;DHT22;8704;52.006;4.374;2022-09-20T00:41:06;11.70;99.90
17178;DHT22;8704;52.006;4.374;2022-09-20T00:43:37;11.70;99.90
17178;DHT22;8704;52.006;4.374;2022-09-20T00:46:18;11.70;99.90
17178;DHT22;8704;52.006;4.374;2022-09-20T00:48:48;11.70;99.90
17178;DHT22;8704;52.006;4.374;2022-09-20T00:51:20;11.60;99.90
17178;DHT22;8704;52.006;4.374;2022-09-20T00:53:50;11.60;99.90
17178;DHT22;8704;52.006;4.374;2022-09-20T00:56:22;11.50;99.90
17178;DHT22;8704;52.006;4.374;2022-09-20T00:58:57;11.50;99.90
17178;DHT22;8704;52.006;4.374;2022-09-20T01:01:27;11.50;99.90
17178;DHT22;8704;52.006;4.374;2022-09-20T01:03:56;11.50;99.90
17178;DHT22;8704;52.006;4.374;2022-09-20T01:06:24;11.50;99.90
17178;DHT22;8704;52.006;4.374;2022-09-20T01:08:53;11.80;99.90
17178;DHT22;8704;52.006;4.374;2022-09-20T01:11:23;11.40;99.90
17178;DHT22;8704;52.006;4.374;2022-09-20T01:13:52;11.40;99.90
17178;DHT22;8704;52.006;4.374;2022-09-20T01:16:21;11.40;99.90
17178;DHT22;8704;52.006;4.374;2022-09-20T01:18:51;11.40;99.90
17178;DHT22;8704;52.006;4.374;2022-09-20T01:21:20;11.30;99.90
17178;DHT22;8704;52.006;4.374;2022-09-20T01:23:53;12.40;99.90
17178;DHT22;8704;52.006;4.374;2022-09-20T01:26:32;11.30;99.90
17178;DHT22;8704;52.006;4.374;2022-09-20T01:29:11;11.20;99.90
17178;DHT22;8704;52.006;4.374;2022-09-20T01:31:49;11.20;99.90
17178;DHT22;8704;52.006;4.374;2022-09-20T01:34:24;11.20;99.90
17178;DHT22;8704;52.006;4.374;2022-09-20T01:37:04;11.20;99.90
17178;DHT22;8704;52.006;4.374;2022-09-20T01:39:38;11.20;99.90
17178;DHT22;8704;52.006;4.374;2022-09-20T01:42:09;11.10;99.90
17178;DHT22;8704;52.006;4.374;2022-09-20T01:44:47;11.10;99.90
17178;DHT22;8704;52.006;4.374;2022-09-20T01:47:29;11.00;99.90
17178;DHT22;8704;52.006;4.374;2022-09-20T01:50:05;11.10;99.90
17178;DHT22;8704;52.006;4.374;2022-09-20T02:02:07;10.90;99.90
17178;DHT22;8704;52.006;4.374;2022-09-20T02:04:51;10.90;99.90
17178;DHT22;8704;52.006;4.374;2022-09-20T02:07:53;10.90;99.90
17178;DHT22;8704;52.006;4.374;2022-09-20T02:11:03;10.80;99.90
17178;DHT22;8704;52.006;4.374;2022-09-20T02:13:54;10.90;99.90
17178;DHT22;8704;52.006;4.374;2022-09-20T02:16:47;10.90;99.90
17178;DHT22;8704;52.006;4.374;2022-09-20T02:19:48;10.80;99.90
17178;DHT22;8704;52.006;4.374;2022-09-20T02:22:41;10.80;99.90
17178;DHT22;8704;52.006;4.374;2022-09-20T02:25:42;10.80;99.90
17178;DHT22;8704;52.006;4.374;2022-09-20T02:28:24;10.80;99.90
17178;DHT22;8704;52.006;4.374;2022-09-20T02:31:01;10.80;99.90
17178;DHT22;8704;52.006;4.374;2022-09-20T02:33:55;11.20;99.90
17178;DHT22;8704;52.006;4.374;2022-09-20T02:36:35;10.70;99.90
17178;DHT22;8704;52.006;4.374;2022-09-20T02:39:10;10.70;99.90
17178;DHT22;8704;52.006;4.374;2022-09-20T02:41:54;10.70;99.90
17178;DHT22;8704;52.006;4.374;2022-09-20T02:44:43;10.70;99.90
17178;DHT22;8704;52.006;4.374;2022-09-20T02:47:18;10.70;99.90
17178;DHT22;8704;52.006;4.374;2022-09-20T02:49:58;10.60;99.90
17178;DHT22;8704;52.006;4.374;2022-09-20T02:52:36;10.60;99.90
17178;DHT22;8704;52.006;4.374;2022-09-20T02:55:12;10.60;99.90
17178;DHT22;8704;52.006;4.374;2022-09-20T02:57:46;10.60;99.90
17178;DHT22;8704;52.006;4.374;2022-09-20T03:00:20;10.60;99.90
17178;DHT22;8704;52.006;4.374;2022-09-20T03:03:05;10.60;99.90
17178;DHT22;8704;52.006;4.374;2022-09-20T03:05:45;10.50;99.90
17178;DHT22;8704;52.006;4.374;2022-09-20T03:08:30;10.50;99.90
17178;DHT22;8704;52.006;4.374;2022-09-20T03:11:07;10.90;99.90
17178;DHT22;8704;52.006;4.374;2022-09-20T03:13:57;10.50;99.90
17178;DHT22;8704;52.006;4.374;2022-09-20T03:16:33;10.50;99.90
17178;DHT22;8704;52.006;4.374;2022-09-20T03:19:13;10.50;99.90
17178;DHT22;8704;52.006;4.374;2022-09-20T03:21:51;10.50;99.90
17178;DHT22;8704;52.006;4.374;2022-09-20T03:24:38;10.60;99.90
17178;DHT22;8704;52.006;4.374;2022-09-20T03:27:17;10.60;99.90
17178;DHT22;8704;52.006;4.374;2022-09-20T03:29:57;10.60;99.90
17178;DHT22;8704;52.006;4.374;2022-09-20T03:32:42;10.70;99.90
17178;DHT22;8704;52.006;4.374;2022-09-20T03:35:31;11.00;99.90
17178;DHT22;8704;52.006;4.374;2022-09-20T03:38:14;10.80;99.90
17178;DHT22;8704;52.006;4.374;2022-09-20T03:41:18;10.70;99.90
17178;DHT22;8704;52.006;4.374;2022-09-20T03:44:12;10.70;99.90
17178;DHT22;8704;52.006;4.374;2022-09-20T03:46:44;10.70;99.90
17178;DHT22;8704;52.006;4.374;2022-09-20T03:52:26;10.80;99.90
17178;DHT22;8704;52.006;4.374;2022-09-20T03:55:18;11.00;99.90
17178;DHT22;8704;52.006;4.374;2022-09-20T03:58:15;10.80;99.90
17178;DHT22;8704;52.006;4.374;2022-09-20T04:01:00;10.80;99.90
17178;DHT22;8704;52.006;4.374;2022-09-20T04:03:41;10.90;99.90
17178;DHT22;8704;52.006;4.374;2022-09-20T04:06:32;10.90;99.90
17178;DHT22;8704;52.006;4.374;2022-09-20T04:09:21;10.90;99.90
17178;DHT22;8704;52.006;4.374;2022-09-20T04:11:58;11.00;99.90
17178;DHT22;8704;52.006;4.374;2022-09-20T04:14:36;11.00;99.90
17178;DHT22;8704;52.006;4.374;2022-09-20T04:17:20;11.10;99.90
17178;DHT22;8704;52.006;4.374;2022-09-20T04:19:57;11.10;99.90
17178;DHT22;8704;52.006;4.374;2022-09-20T04:22:28;11.10;99.90
17178;DHT22;8704;52.006;4.374;2022-09-20T04:25:02;11.50;99.90
17178;DHT22;8704;52.006;4.374;2022-09-20T04:27:34;11.20;99.90
17178;DHT22;8704;52.006;4.374;2022-09-20T04:30:16;11.10;99.90
17178;DHT22;8704;52.006;4.374;2022-09-20T04:32:48;11.10;99.90
17178;DHT22;8704;52.006;4.374;2022-09-20T04:35:34;11.10;99.90
17178;DHT22;8704;52.006;4.374;2022-09-20T04:38:21;11.20;99.90
17178;DHT22;8704;52.006;4.374;2022-09-20T04:41:06;11.20;99.90
17178;DHT22;8704;52.006;4.374;2022-09-20T04:44:03;12.10;99.90
17178;DHT22;8704;52.006;4.374;2022-09-20T04:53:13;11.20;99.90
17178;DHT22;8704;52.006;4.374;2022-09-20T04:55:49;11.20;99.90
17178;DHT22;8704;52.006;4.374;2022-09-20T04:58:33;11.30;99.90
17178;DHT22;8704;52.006;4.374;2022-09-20T05:04:41;11.30;99.90
17178;DHT22;8704;52.006;4.374;2022-09-20T05:07:48;11.30;99.90
17178;DHT22;8704;52.006;4.374;2022-09-20T05:13:27;11.40;99.90
17178;DHT22;8704;52.006;4.374;2022-09-20T05:16:00;11.40;99.90
17178;DHT22;8704;52.006;4.374;2022-09-20T05:19:05;11.40;99.90
17178;DHT22;8704;52.006;4.374;2022-09-20T05:21:49;11.40;99.90
17178;DHT22;8704;52.006;4.374;2022-09-20T05:24:43;11.40;99.90
17178;DHT22;8704;52.006;4.374;2022-09-20T05:27:31;11.50;99.90
17178;DHT22;8704;52.006;4.374;2022-09-20T05:30:03;11.50;99.90
17178;DHT22;8704;52.006;4.374;2022-09-20T05:32:40;11.50;99.90
17178;DHT22;8704;52.006;4.374;2022-09-20T05:35:15;11.40;99.90
17178;DHT22;8704;52.006;4.374;2022-09-20T05:37:50;11.40;99.90
17178;DHT22;8704;52.006;4.374;2022-09-20T05:40:27;11.50;99.90
17178;DHT22;8704;52.006;4.374;2022-09-20T05:43:03;11.50;99.90
17178;DHT22;8704;52.006;4.374;2022-09-20T05:45:46;11.50;99.90
17178;DHT22;8704;52.006;4.374;2022-09-20T05:48:22;11.50;99.90
17178;DHT22;8704;52.006;4.374;2022-09-20T05:50:57;11.50;99.90
17178;DHT22;8704;52.006;4.374;2022-09-20T05:53:59;11.50;99.90
17178;DHT22;8704;52.006;4.374;2022-09-20T05:56:40;11.50;99.90
17178;DHT22;8704;52.006;4.374;2022-09-20T05:59:20;11.50;99.90
17178;DHT22;8704;52.006;4.374;2022-09-20T06:02:01;11.50;99.90
17178;DHT22;8704;52.006;4.374;2022-09-20T06:04:38;11.50;99.90
17178;DHT22;8704;52.006;4.374;2022-09-20T06:07:19;11.50;99.90
17178;DHT22;8704;52.006;4.374;2022-09-20T06:10:11;11.50;99.90
17178;DHT22;8704;52.006;4.374;2022-09-20T06:12:50;11.50;99.90
17178;DHT22;8704;52.006;4.374;2022-09-20T06:15:25;11.60;99.90
17178;DHT22;8704;52.006;4.374;2022-09-20T06:18:02;11.60;99.90
17178;DHT22;8704;52.006;4.374;2022-09-20T06:20:38;11.60;99.90
17178;DHT22;8704;52.006;4.374;2022-09-20T06:23:12;11.60;99.90
17178;DHT22;8704;52.006;4.374;2022-09-20T06:25:46;11.70;99.90
17178;DHT22;8704;52.006;4.374;2022-09-20T06:28:20;11.70;99.90
17178;DHT22;8704;52.006;4.374;2022-09-20T06:30:51;11.70;99.90
17178;DHT22;8704;52.006;4.374;2022-09-20T06:33:20;11.70;99.90
17178;DHT22;8704;52.006;4.374;2022-09-20T06:35:53;11.70;99.90
17178;DHT22;8704;52.006;4.374;2022-09-20T06:38:44;11.80;99.90
17178;DHT22;8704;52.006;4.374;2022-09-20T06:41:35;11.80;99.90
17178;DHT22;8704;52.006;4.374;2022-09-20T06:44:04;11.90;99.90
17178;DHT22;8704;52.006;4.374;2022-09-20T06:46:34;11.90;99.90
17178;DHT22;8704;52.006;4.374;2022-09-20T06:49:03;12.00;99.90
17178;DHT22;8704;52.006;4.374;2022-09-20T06:51:35;12.00;99.90
17178;DHT22;8704;52.006;4.374;2022-09-20T06:54:05;12.00;99.90
17178;DHT22;8704;52.006;4.374;2022-09-20T06:56:36;12.10;99.90
17178;DHT22;8704;52.006;4.374;2022-09-20T06:59:04;12.10;99.90
17178;DHT22;8704;52.006;4.374;2022-09-20T07:01:36;12.20;99.90
17178;DHT22;8704;52.006;4.374;2022-09-20T07:04:04;12.20;99.90
17178;DHT22;8704;52.006;4.374;2022-09-20T07:06:32;12.20;99.90
17178;DHT22;8704;52.006;4.374;2022-09-20T07:09:00;12.30;99.90
17178;DHT22;8704;52.006;4.374;2022-09-20T07:11:28;12.30;99.90
17178;DHT22;8704;52.006;4.374;2022-09-20T07:14:02;12.30;99.90
17178;DHT22;8704;52.006;4.374;2022-09-20T07:16:30;12.40;99.90
17178;DHT22;8704;52.006;4.374;2022-09-20T07:18:58;12.50;99.90
17178;DHT22;8704;52.006;4.374;2022-09-20T07:21:26;12.50;99.90
17178;DHT22;8704;52.006;4.374;2022-09-20T07:23:54;12.60;99.90
17178;DHT22;8704;52.006;4.374;2022-09-20T07:26:25;12.60;99.90
17178;DHT22;8704;52.006;4.374;2022-09-20T07:28:54;12.70;99.90
17178;DHT22;8704;52.006;4.374;2022-09-20T07:31:25;12.70;99.90
17178;DHT22;8704;52.006;4.374;2022-09-20T07:33:54;12.80;99.90
17178;DHT22;8704;52.006;4.374;2022-09-20T07:36:22;12.80;99.90
17178;DHT22;8704;52.006;4.374;2022-09-20T07:38:51;12.80;99.90
17178;DHT22;8704;52.006;4.374;2022-09-20T07:41:20;12.90;99.90
17178;DHT22;8704;52.006;4.374;2022-09-20T07:43:48;13.60;99.90
17178;DHT22;8704;52.006;4.374;2022-09-20T07:46:17;13.00;99.90
17178;DHT22;8704;52.006;4.374;2022-09-20T07:48:49;12.90;99.90
17178;DHT22;8704;52.006;4.374;2022-09-20T07:51:18;12.90;99.90
17178;DHT22;8704;52.006;4.374;2022-09-20T07:53:45;12.90;99.90
17178;DHT22;8704;52.006;4.374;2022-09-20T07:56:15;13.00;99.90
17178;DHT22;8704;52.006;4.374;2022-09-20T07:58:44;13.00;99.90
17178;DHT22;8704;52.006;4.374;2022-09-20T08:01:18;13.10;99.90
17178;DHT22;8704;52.006;4.374;2022-09-20T08:03:46;13.10;99.90
17178;DHT22;8704;52.006;4.374;2022-09-20T08:06:16;13.10;99.90
17178;DHT22;8704;52.006;4.374;2022-09-20T08:08:46;13.60;99.90
17178;DHT22;8704;52.006;4.374;2022-09-20T08:11:16;13.10;99.90
17178;DHT22;8704;52.006;4.374;2022-09-20T08:13:46;13.20;99.90
17178;DHT22;8704;52.006;4.374;2022-09-20T08:16:37;13.10;99.90
17178;DHT22;8704;52.006;4.374;2022-09-20T08:19:05;13.20;99.90
17178;DHT22;8704;52.006;4.374;2022-09-20T08:21:35;13.20;99.90
17178;DHT22;8704;52.006;4.374;2022-09-20T08:24:04;13.20;99.90
17178;DHT22;8704;52.006;4.374;2022-09-20T08:26:32;13.30;99.90
17178;DHT22;8704;52.006;4.374;2022-09-20T08:29:03;13.50;99.90
17178;DHT22;8704;52.006;4.374;2022-09-20T08:31:33;13.30;99.90
17178;DHT22;8704;52.006;4.374;2022-09-20T08:34:03;13.40;99.90
17178;DHT22;8704;52.006;4.374;2022-09-20T08:36:36;13.50;99.90
17178;DHT22;8704;52.006;4.374;2022-09-20T08:39:07;14.30;99.90
17178;DHT22;8704;52.006;4.374;2022-09-20T08:42:00;13.60;99.90
17178;DHT22;8704;52.006;4.374;2022-09-20T08:44:34;13.80;99.90
17178;DHT22;8704;52.006;4.374;2022-09-20T08:47:05;13.90;99.90
17178;DHT22;8704;52.006;4.374;2022-09-20T08:49:36;14.00;99.90
17178;DHT22;8704;52.006;4.374;2022-09-20T08:52:06;14.10;99.90
17178;DHT22;8704;52.006;4.374;2022-09-20T08:54:37;15.00;99.90
17178;DHT22;8704;52.006;4.374;2022-09-20T08:57:10;14.40;99.90
17178;DHT22;8704;52.006;4.374;2022-09-20T08:59:40;14.50;99.90
17178;DHT22;8704;52.006;4.374;2022-09-20T09:02:14;14.60;99.90
17178;DHT22;8704;52.006;4.374;2022-09-20T09:04:42;14.70;99.90
17178;DHT22;8704;52.006;4.374;2022-09-20T09:07:14;14.80;99.90
17178;DHT22;8704;52.006;4.374;2022-09-20T09:09:43;14.80;99.90
17178;DHT22;8704;52.006;4.374;2022-09-20T09:12:17;14.80;99.90
17178;DHT22;8704;52.006;4.374;2022-09-20T09:14:45;14.90;99.90
17178;DHT22;8704;52.006;4.374;2022-09-20T09:17:21;14.90;99.90
17178;DHT22;8704;52.006;4.374;2022-09-20T09:19:54;15.00;99.90
17178;DHT22;8704;52.006;4.374;2022-09-20T09:22:28;15.00;99.90
17178;DHT22;8704;52.006;4.374;2022-09-20T09:25:22;15.20;99.90
17178;DHT22;8704;52.006;4.374;2022-09-20T09:27:53;15.20;99.90
17178;DHT22;8704;52.006;4.374;2022-09-20T09:30:24;15.20;99.90
17178;DHT22;8704;52.006;4.374;2022-09-20T09:33:16;15.30;99.90
17178;DHT22;8704;52.006;4.374;2022-09-20T09:35:52;15.20;99.90
17178;DHT22;8704;52.006;4.374;2022-09-20T09:38:23;15.30;99.90
17178;DHT22;8704;52.006;4.374;2022-09-20T09:40:53;15.40;99.90
17178;DHT22;8704;52.006;4.374;2022-09-20T09:43:24;15.80;99.90
17178;DHT22;8704;52.006;4.374;2022-09-20T09:45:55;15.50;99.90
17178;DHT22;8704;52.006;4.374;2022-09-20T09:48:26;15.60;99.90
17178;DHT22;8704;52.006;4.374;2022-09-20T09:51:07;15.60;99.90
17178;DHT22;8704;52.006;4.374;2022-09-20T09:53:37;15.70;99.90
17178;DHT22;8704;52.006;4.374;2022-09-20T09:56:15;15.90;99.90
17178;DHT22;8704;52.006;4.374;2022-09-20T09:59:05;16.00;99.90
17178;DHT22;8704;52.006;4.374;2022-09-20T10:01:42;16.10;99.90
17178;DHT22;8704;52.006;4.374;2022-09-20T10:04:18;16.00;64.70
17178;DHT22;8704;52.006;4.374;2022-09-20T10:06:52;16.20;99.90
17178;DHT22;8704;52.006;4.374;2022-09-20T10:09:30;15.90;40.70
17178;DHT22;8704;52.006;4.374;2022-09-20T10:12:13;15.80;31.60
17178;DHT22;8704;52.006;4.374;2022-09-20T10:14:56;15.70;1.40
17178;DHT22;8704;52.006;4.374;2022-09-20T10:17:39;15.90;55.10
17178;DHT22;8704;52.006;4.374;2022-09-20T10:20:23;16.10;90.60
17178;DHT22;8704;52.006;4.374;2022-09-20T10:23:01;16.30;27.00
17178;DHT22;8704;52.006;4.374;2022-09-20T10:26:00;16.40;25.90
17178;DHT22;8704;52.006;4.374;2022-09-20T10:28:38;16.40;1.00
17178;DHT22;8704;52.006;4.374;2022-09-20T10:31:23;16.40;1.00
17178;DHT22;8704;52.006;4.374;2022-09-20T10:34:08;16.40;1.00
17178;DHT22;8704;52.006;4.374;2022-09-20T10:36:46;16.60;1.00
17178;DHT22;8704;52.006;4.374;2022-09-20T10:39:21;17.00;1.00
17178;DHT22;8704;52.006;4.374;2022-09-20T10:42:00;16.80;1.00
17178;DHT22;8704;52.006;4.374;2022-09-20T10:45:01;16.80;1.00
17178;DHT22;8704;52.006;4.374;2022-09-20T10:47:33;16.60;1.00
17178;DHT22;8704;52.006;4.374;2022-09-20T10:50:11;16.60;1.00
17178;DHT22;8704;52.006;4.374;2022-09-20T10:52:56;16.60;48.00
17178;DHT22;8704;52.006;4.374;2022-09-20T10:55:35;16.90;99.90
17178;DHT22;8704;52.006;4.374;2022-09-20T10:58:27;17.10;94.30
17178;DHT22;8704;52.006;4.374;2022-09-20T11:01:00;17.20;1.00
17178;DHT22;8704;52.006;4.374;2022-09-20T11:03:42;17.20;1.00
17178;DHT22;8704;52.006;4.374;2022-09-20T11:06:14;17.10;1.00
17178;DHT22;8704;52.006;4.374;2022-09-20T11:08:44;17.30;27.80
17178;DHT22;8704;52.006;4.374;2022-09-20T11:11:19;17.90;1.00
17178;DHT22;8704;52.006;4.374;2022-09-20T11:13:55;17.60;1.00
17178;DHT22;8704;52.006;4.374;2022-09-20T11:16:28;17.40;1.00
17178;DHT22;8704;52.006;4.374;2022-09-20T11:19:04;17.60;1.00
17178;DHT22;8704;52.006;4.374;2022-09-20T11:21:38;17.40;1.00
17178;DHT22;8704;52.006;4.374;2022-09-20T11:24:14;17.50;1.00
17178;DHT22;8704;52.006;4.374;2022-09-20T11:26:49;17.50;1.00
17178;DHT22;8704;52.006;4.374;2022-09-20T11:29:26;17.40;1.00
17178;DHT22;8704;52.006;4.374;2022-09-20T11:32:05;17.20;1.00
17178;DHT22;8704;52.006;4.374;2022-09-20T11:34:46;17.20;1.00
17178;DHT22;8704;52.006;4.374;2022-09-20T11:37:19;17.70;89.10
17178;DHT22;8704;52.006;4.374;2022-09-20T11:39:52;17.70;1.00
17178;DHT22;8704;52.006;4.374;2022-09-20T11:42:22;17.70;1.00
17178;DHT22;8704;52.006;4.374;2022-09-20T11:44:53;18.20;1.00
17178;DHT22;8704;52.006;4.374;2022-09-20T11:47:30;17.80;99.90
17178;DHT22;8704;52.006;4.374;2022-09-20T11:50:50;18.20;1.00
17178;DHT22;8704;52.006;4.374;2022-09-20T11:53:40;18.20;1.00
17178;DHT22;8704;52.006;4.374;2022-09-20T11:56:15;18.40;1.00
17178;DHT22;8704;52.006;4.374;2022-09-20T11:58:48;18.40;1.00
17178;DHT22;8704;52.006;4.374;2022-09-20T12:01:26;18.50;1.00
17178;DHT22;8704;52.006;4.374;2022-09-20T12:04:00;18.60;1.00
17178;DHT22;8704;52.006;4.374;2022-09-20T12:06:57;18.90;99.90
17178;DHT22;8704;52.006;4.374;2022-09-20T12:09:37;19.10;1.00
17178;DHT22;8704;52.006;4.374;2022-09-20T12:12:27;19.30;1.00
17178;DHT22;8704;52.006;4.374;2022-09-20T12:14:59;19.50;1.00
17178;DHT22;8704;52.006;4.374;2022-09-20T12:21:05;19.70;99.90
17178;DHT22;8704;52.006;4.374;2022-09-20T12:26:43;19.20;59.30
17178;DHT22;8704;52.006;4.374;2022-09-20T12:32:49;19.70;1.00
17178;DHT22;8704;52.006;4.374;2022-09-20T12:38:36;19.80;1.00
17178;DHT22;8704;52.006;4.374;2022-09-20T12:41:13;20.00;1.00
17178;DHT22;8704;52.006;4.374;2022-09-20T12:44:03;19.80;1.00
17178;DHT22;8704;52.006;4.374;2022-09-20T12:46:40;19.50;1.00
17178;DHT22;8704;52.006;4.374;2022-09-20T12:49:18;19.30;1.00
17178;DHT22;8704;52.006;4.374;2022-09-20T12:52:23;19.10;1.00
17178;DHT22;8704;52.006;4.374;2022-09-20T12:55:28;19.00;99.90
17178;DHT22;8704;52.006;4.374;2022-09-20T12:58:00;18.90;99.90
17178;DHT22;8704;52.006;4.374;2022-09-20T13:00:37;18.80;1.00
17178;DHT22;8704;52.006;4.374;2022-09-20T13:03:23;19.20;1.00
17178;DHT22;8704;52.006;4.374;2022-09-20T13:06:25;19.50;26.60
17178;DHT22;8704;52.006;4.374;2022-09-20T13:09:02;19.80;1.00
17178;DHT22;8704;52.006;4.374;2022-09-20T13:11:37;20.10;1.00
17178;DHT22;8704;52.006;4.374;2022-09-20T13:14:12;20.60;1.00
17178;DHT22;8704;52.006;4.374;2022-09-20T13:16:48;20.70;99.90
17178;DHT22;8704;52.006;4.374;2022-09-20T13:19:19;20.70;99.90
17178;DHT22;8704;52.006;4.374;2022-09-20T13:21:55;20.50;99.90
17178;DHT22;8704;52.006;4.374;2022-09-20T13:24:25;21.10;99.90
17178;DHT22;8704;52.006;4.374;2022-09-20T13:26:58;21.40;99.90
17178;DHT22;8704;52.006;4.374;2022-09-20T13:29:33;21.50;99.90
17178;DHT22;8704;52.006;4.374;2022-09-20T13:32:15;22.20;99.90
17178;DHT22;8704;52.006;4.374;2022-09-20T13:34:43;22.20;93.90
17178;DHT22;8704;52.006;4.374;2022-09-20T13:37:17;22.40;11.90
17178;DHT22;8704;52.006;4.374;2022-09-20T13:39:52;22.70;1.00
17178;DHT22;8704;52.006;4.374;2022-09-20T13:42:22;23.10;1.00
17178;DHT22;8704;52.006;4.374;2022-09-20T13:44:51;23.10;1.00
17178;DHT22;8704;52.006;4.374;2022-09-20T13:47:25;23.20;1.00
17178;DHT22;8704;52.006;4.374;2022-09-20T13:50:06;23.10;1.00
17178;DHT22;8704;52.006;4.374;2022-09-20T13:52:44;23.10;1.00
17178;DHT22;8704;52.006;4.374;2022-09-20T13:55:29;22.90;1.00
17178;DHT22;8704;52.006;4.374;2022-09-20T13:58:01;22.70;1.00
17178;DHT22;8704;52.006;4.374;2022-09-20T14:00:34;23.20;1.00
17178;DHT22;8704;52.006;4.374;2022-09-20T14:03:04;23.40;1.00
17178;DHT22;8704;52.006;4.374;2022-09-20T14:05:34;23.30;1.00
17178;DHT22;8704;52.006;4.374;2022-09-20T14:08:06;23.10;1.00
17178;DHT22;8704;52.006;4.374;2022-09-20T14:10:42;23.40;1.00
17178;DHT22;8704;52.006;4.374;2022-09-20T14:13:15;23.50;1.00
17178;DHT22;8704;52.006;4.374;2022-09-20T14:15:45;23.70;1.00
17178;DHT22;8704;52.006;4.374;2022-09-20T14:18:16;24.30;1.00
17178;DHT22;8704;52.006;4.374;2022-09-20T14:20:47;24.10;1.00
17178;DHT22;8704;52.006;4.374;2022-09-20T14:23:20;24.50;1.00
17178;DHT22;8704;52.006;4.374;2022-09-20T14:26:21;24.50;1.00
17178;DHT22;8704;52.006;4.374;2022-09-20T14:28:51;24.70;1.00
17178;DHT22;8704;52.006;4.374;2022-09-20T14:31:22;24.50;1.00
17178;DHT22;8704;52.006;4.374;2022-09-20T14:33:52;24.60;1.00
17178;DHT22;8704;52.006;4.374;2022-09-20T14:36:22;25.40;1.00
17178;DHT22;8704;52.006;4.374;2022-09-20T14:38:53;25.40;1.00
17178;DHT22;8704;52.006;4.374;2022-09-20T14:41:27;24.90;1.00
17178;DHT22;8704;52.006;4.374;2022-09-20T14:44:01;24.90;1.00
17178;DHT22;8704;52.006;4.374;2022-09-20T14:46:33;24.90;1.00
17178;DHT22;8704;52.006;4.374;2022-09-20T14:49:20;24.90;1.00
17178;DHT22;8704;52.006;4.374;2022-09-20T14:54:58;24.90;1.00
17178;DHT22;8704;52.006;4.374;2022-09-20T14:57:27;24.70;1.00
17178;DHT22;8704;52.006;4.374;2022-09-20T14:59:56;24.90;1.00
17178;DHT22;8704;52.006;4.374;2022-09-20T15:02:24;25.40;1.00
17178;DHT22;8704;52.006;4.374;2022-09-20T15:04:55;25.20;1.00
17178;DHT22;8704;52.006;4.374;2022-09-20T15:07:25;24.50;1.00
17178;DHT22;8704;52.006;4.374;2022-09-20T15:09:53;24.50;1.00
17178;DHT22;8704;52.006;4.374;2022-09-20T15:12:21;25.00;1.00
17178;DHT22;8704;52.006;4.374;2022-09-20T15:14:49;25.20;1.00
17178;DHT22;8704;52.006;4.374;2022-09-20T15:17:20;25.00;1.00
17178;DHT22;8704;52.006;4.374;2022-09-20T15:19:49;25.10;1.00
17178;DHT22;8704;52.006;4.374;2022-09-20T15:22:17;24.90;1.00
17178;DHT22;8704;52.006;4.374;2022-09-20T15:24:44;24.90;1.00
17178;DHT22;8704;52.006;4.374;2022-09-20T15:27:13;24.90;1.00
17178;DHT22;8704;52.006;4.374;2022-09-20T15:29:41;24.70;1.00
17178;DHT22;8704;52.006;4.374;2022-09-20T15:32:09;24.40;1.00
17178;DHT22;8704;52.006;4.374;2022-09-20T15:34:39;24.30;1.00
17178;DHT22;8704;52.006;4.374;2022-09-20T15:37:06;24.20;1.00
17178;DHT22;8704;52.006;4.374;2022-09-20T15:39:34;24.00;1.00
17178;DHT22;8704;52.006;4.374;2022-09-20T15:42:03;23.90;1.00
17178;DHT22;8704;52.006;4.374;2022-09-20T15:44:31;23.80;1.00
17178;DHT22;8704;52.006;4.374;2022-09-20T15:46:59;23.70;1.00
17178;DHT22;8704;52.006;4.374;2022-09-20T15:49:28;23.50;1.00
17178;DHT22;8704;52.006;4.374;2022-09-20T15:52:00;23.00;1.00
17178;DHT22;8704;52.006;4.374;2022-09-20T15:54:28;22.80;1.00
17178;DHT22;8704;52.006;4.374;2022-09-20T15:56:56;22.50;1.00
17178;DHT22;8704;52.006;4.374;2022-09-20T15:59:24;22.00;1.00
17178;DHT22;8704;52.006;4.374;2022-09-20T16:01:54;21.80;1.00
17178;DHT22;8704;52.006;4.374;2022-09-20T16:04:22;21.60;1.00
17178;DHT22;8704;52.006;4.374;2022-09-20T16:06:52;21.50;1.00
17178;DHT22;8704;52.006;4.374;2022-09-20T16:09:21;21.20;1.00
17178;DHT22;8704;52.006;4.374;2022-09-20T16:11:49;21.00;1.00
17178;DHT22;8704;52.006;4.374;2022-09-20T16:14:17;20.90;1.00
17178;DHT22;8704;52.006;4.374;2022-09-20T16:16:45;20.50;1.00
17178;DHT22;8704;52.006;4.374;2022-09-20T16:19:13;20.50;1.00
17178;DHT22;8704;52.006;4.374;2022-09-20T16:21:45;20.20;1.00
17178;DHT22;8704;52.006;4.374;2022-09-20T16:24:23;20.20;1.00
17178;DHT22;8704;52.006;4.374;2022-09-20T16:26:52;19.80;1.00
17178;DHT22;8704;52.006;4.374;2022-09-20T16:29:20;19.90;1.00
17178;DHT22;8704;52.006;4.374;2022-09-20T16:31:49;19.60;1.00
17178;DHT22;8704;52.006;4.374;2022-09-20T16:34:19;19.40;1.00
17178;DHT22;8704;52.006;4.374;2022-09-20T16:36:49;19.20;1.00
17178;DHT22;8704;52.006;4.374;2022-09-20T16:39:18;19.20;99.90
17178;DHT22;8704;52.006;4.374;2022-09-20T16:41:48;19.20;99.90
17178;DHT22;8704;52.006;4.374;2022-09-20T16:44:18;19.00;99.90
17178;DHT22;8704;52.006;4.374;2022-09-20T16:46:46;19.10;99.90
17178;DHT22;8704;52.006;4.374;2022-09-20T16:49:14;18.80;99.90
17178;DHT22;8704;52.006;4.374;2022-09-20T16:51:43;18.50;99.90
17178;DHT22;8704;52.006;4.374;2022-09-20T16:54:13;18.50;99.90
17178;DHT22;8704;52.006;4.374;2022-09-20T16:56:43;18.30;88.50
17178;DHT22;8704;52.006;4.374;2022-09-20T16:59:14;18.10;99.90
17178;DHT22;8704;52.006;4.374;2022-09-20T17:01:43;18.10;99.90
17178;DHT22;8704;52.006;4.374;2022-09-20T17:04:11;18.00;99.90
17178;DHT22;8704;52.006;4.374;2022-09-20T17:06:40;17.90;99.90
17178;DHT22;8704;52.006;4.374;2022-09-20T17:09:10;17.90;99.90
17178;DHT22;8704;52.006;4.374;2022-09-20T17:11:39;17.70;99.90
17178;DHT22;8704;52.006;4.374;2022-09-20T17:14:07;17.60;99.90
17178;DHT22;8704;52.006;4.374;2022-09-20T17:16:39;17.50;1.00
17178;DHT22;8704;52.006;4.374;2022-09-20T17:19:09;17.50;1.00
17178;DHT22;8704;52.006;4.374;2022-09-20T17:21:38;17.30;1.00
17178;DHT22;8704;52.006;4.374;2022-09-20T17:24:09;17.20;1.00
17178;DHT22;8704;52.006;4.374;2022-09-20T17:26:38;17.10;1.00